sensor_id;sensor_type;location;lat;lon;timestamp;pressure;altitude;pressure_sealevel;temperature;humidity
37778;BME280;23615;51.506;7.678;2023-05-12T00:01:41;99842.53;;;13.98;100.00
37778;BME280;23615;51.506;7.678;2023-05-12T00:04:07;99839.59;;;13.99;100.00
37778;BME280;23615;51.506;7.678;2023-05-12T00:06:32;99841.94;;;13.96;100.00
37778;BME280;23615;51.506;7.678;2023-05-12T00:08:57;99837.97;;;13.98;100.00
37778;BME280;23615;51.506;7.678;2023-05-12T00:11:23;99843.56;;;13.97;100.00
37778;BME280;23615;51.506;7.678;2023-05-12T00:13:48;99843.78;;;13.90;100.00
37778;BME280;23615;51.506;7.678;2023-05-12T00:16:13;99844.25;;;13.87;100.00
37778;BME280;23615;51.506;7.678;2023-05-12T00:18:41;99849.63;;;13.87;100.00
37778;BME280;23615;51.506;7.678;2023-05-12T00:21:06;99841.34;;;13.89;100.00
37778;BME280;23615;51.506;7.678;2023-05-12T00:23:32;99845.31;;;13.86;100.00
37778;BME280;23615;51.506;7.678;2023-05-12T00:25:58;99847.50;;;13.89;100.00
37778;BME280;23615;51.506;7.678;2023-05-12T00:28:23;99852.31;;;13.87;100.00
37778;BME280;23615;51.506;7.678;2023-05-12T00:30:48;99857.91;;;13.85;100.00
37778;BME280;23615;51.506;7.678;2023-05-12T00:33:14;99856.56;;;13.83;100.00
37778;BME280;23615;51.506;7.678;2023-05-12T00:35:41;99852.00;;;13.83;100.00
37778;BME280;23615;51.506;7.678;2023-05-12T00:38:06;99856.22;;;13.79;100.00
37778;BME280;23615;51.506;7.678;2023-05-12T00:40:31;99861.59;;;13.79;100.00
37778;BME280;23615;51.506;7.678;2023-05-12T00:42:57;99864.72;;;13.71;100.00
37778;BME280;23615;51.506;7.678;2023-05-12T00:45:22;99867.16;;;13.73;100.00
37778;BME280;23615;51.506;7.678;2023-05-12T00:47:50;99860.97;;;13.72;100.00
37778;BME280;23615;51.506;7.678;2023-05-12T00:50:16;99859.09;;;13.73;100.00
37778;BME280;23615;51.506;7.678;2023-05-12T00:52:42;99866.91;;;13.74;100.00
37778;BME280;23615;51.506;7.678;2023-05-12T00:55:08;99867.97;;;13.73;100.00
37778;BME280;23615;51.506;7.678;2023-05-12T00:57:33;99862.22;;;13.65;100.00
37778;BME280;23615;51.506;7.678;2023-05-12T00:59:59;99858.72;;;13.64;100.00
37778;BME280;23615;51.506;7.678;2023-05-12T01:02:24;99864.00;;;13.59;100.00
37778;BME280;23615;51.506;7.678;2023-05-12T01:04:49;99865.81;;;13.75;100.00
37778;BME280;23615;51.506;7.678;2023-05-12T01:07:18;99858.53;;;13.71;100.00
37778;BME280;23615;51.506;7.678;2023-05-12T01:09:45;99871.13;;;13.70;100.00
37778;BME280;23615;51.506;7.678;2023-05-12T01:12:10;99863.13;;;13.75;100.00
37778;BME280;23615;51.506;7.678;2023-05-12T01:14:36;99868.94;;;13.67;100.00
37778;BME280;23615;51.506;7.678;2023-05-12T01:17:10;99866.75;;;13.64;100.00
37778;BME280;23615;51.506;7.678;2023-05-12T01:19:45;99876.69;;;13.64;100.00
37778;BME280;23615;51.506;7.678;2023-05-12T01:22:11;99866.19;;;13.62;100.00
37778;BME280;23615;51.506;7.678;2023-05-12T01:24:51;99867.25;;;13.61;100.00
37778;BME280;23615;51.506;7.678;2023-05-12T01:27:19;99869.44;;;13.64;100.00
37778;BME280;23615;51.506;7.678;2023-05-12T01:29:46;99868.31;;;13.60;100.00
37778;BME280;23615;51.506;7.678;2023-05-12T01:32:13;99867.69;;;13.53;100.00
37778;BME280;23615;51.506;7.678;2023-05-12T01:34:39;99870.84;;;13.50;100.00
37778;BME280;23615;51.506;7.678;2023-05-12T01:37:07;99866.28;;;13.51;100.00
37778;BME280;23615;51.506;7.678;2023-05-12T01:39:32;99873.47;;;13.45;100.00
37778;BME280;23615;51.506;7.678;2023-05-12T01:41:57;99873.22;;;13.46;100.00
37778;BME280;23615;51.506;7.678;2023-05-12T01:44:22;99875.09;;;13.46;100.00
37778;BME280;23615;51.506;7.678;2023-05-12T01:46:48;99877.75;;;13.46;100.00
37778;BME280;23615;51.506;7.678;2023-05-12T01:49:13;99880.34;;;13.41;100.00
37778;BME280;23615;51.506;7.678;2023-05-12T01:51:39;99877.44;;;13.42;100.00
37778;BME280;23615;51.506;7.678;2023-05-12T01:54:04;99880.69;;;13.44;100.00
37778;BME280;23615;51.506;7.678;2023-05-12T01:56:29;99885.13;;;13.39;100.00
37778;BME280;23615;51.506;7.678;2023-05-12T01:58:54;99892.06;;;13.35;100.00
37778;BME280;23615;51.506;7.678;2023-05-12T02:01:20;99893.19;;;13.39;100.00
37778;BME280;23615;51.506;7.678;2023-05-12T02:03:47;99891.25;;;13.34;100.00
37778;BME280;23615;51.506;7.678;2023-05-12T02:06:12;99893.69;;;13.36;100.00
37778;BME280;23615;51.506;7.678;2023-05-12T02:08:37;99900.69;;;13.37;100.00
37778;BME280;23615;51.506;7.678;2023-05-12T02:11:06;99901.72;;;13.36;100.00
37778;BME280;23615;51.506;7.678;2023-05-12T02:13:32;99895.31;;;13.37;100.00
37778;BME280;23615;51.506;7.678;2023-05-12T02:15:58;99893.69;;;13.36;100.00
37778;BME280;23615;51.506;7.678;2023-05-12T02:18:23;99893.94;;;13.34;100.00
37778;BME280;23615;51.506;7.678;2023-05-12T02:20:48;99895.56;;;13.35;100.00
37778;BME280;23615;51.506;7.678;2023-05-12T02:23:14;99895.78;;;13.34;100.00
37778;BME280;23615;51.506;7.678;2023-05-12T02:25:39;99905.47;;;13.35;100.00
37778;BME280;23615;51.506;7.678;2023-05-12T02:28:04;99900.34;;;13.33;100.00
37778;BME280;23615;51.506;7.678;2023-05-12T02:30:32;99899.28;;;13.34;100.00
37778;BME280;23615;51.506;7.678;2023-05-12T02:32:58;99898.22;;;13.35;100.00
37778;BME280;23615;51.506;7.678;2023-05-12T02:35:23;99896.59;;;13.34;100.00
37778;BME280;23615;51.506;7.678;2023-05-12T02:37:48;99897.91;;;13.32;100.00
37778;BME280;23615;51.506;7.678;2023-05-12T02:40:14;99898.94;;;13.31;100.00
37778;BME280;23615;51.506;7.678;2023-05-12T02:42:40;99896.84;;;13.33;100.00
37778;BME280;23615;51.506;7.678;2023-05-12T02:45:05;99897.59;;;13.28;100.00
37778;BME280;23615;51.506;7.678;2023-05-12T02:47:31;99898.88;;;13.26;100.00
37778;BME280;23615;51.506;7.678;2023-05-12T02:49:57;99904.81;;;13.28;100.00
37778;BME280;23615;51.506;7.678;2023-05-12T02:52:22;99889.78;;;13.27;100.00
37778;BME280;23615;51.506;7.678;2023-05-12T02:54:48;99899.13;;;13.24;100.00
37778;BME280;23615;51.506;7.678;2023-05-12T02:57:13;99894.50;;;13.20;100.00
37778;BME280;23615;51.506;7.678;2023-05-12T02:59:38;99906.09;;;13.25;100.00
37778;BME280;23615;51.506;7.678;2023-05-12T03:02:03;99904.16;;;13.21;100.00
37778;BME280;23615;51.506;7.678;2023-05-12T03:04:29;99899.88;;;13.20;100.00
37778;BME280;23615;51.506;7.678;2023-05-12T03:06:55;99906.28;;;13.19;100.00
37778;BME280;23615;51.506;7.678;2023-05-12T03:09:21;99902.44;;;13.15;100.00
37778;BME280;23615;51.506;7.678;2023-05-12T03:11:46;99897.91;;;13.15;100.00
37778;BME280;23615;51.506;7.678;2023-05-12T03:14:12;99902.81;;;13.06;100.00
37778;BME280;23615;51.506;7.678;2023-05-12T03:16:37;99904.75;;;13.11;100.00
37778;BME280;23615;51.506;7.678;2023-05-12T03:19:02;99907.72;;;13.09;100.00
37778;BME280;23615;51.506;7.678;2023-05-12T03:21:29;99909.34;;;13.10;100.00
37778;BME280;23615;51.506;7.678;2023-05-12T03:23:54;99906.38;;;13.12;100.00
37778;BME280;23615;51.506;7.678;2023-05-12T03:26:20;99915.41;;;13.06;100.00
37778;BME280;23615;51.506;7.678;2023-05-12T03:28:46;99910.03;;;13.06;100.00
37778;BME280;23615;51.506;7.678;2023-05-12T03:31:11;99910.53;;;13.03;100.00
37778;BME280;23615;51.506;7.678;2023-05-12T03:33:36;99911.25;;;12.98;100.00
37778;BME280;23615;51.506;7.678;2023-05-12T03:36:02;99908.25;;;12.95;100.00
37778;BME280;23615;51.506;7.678;2023-05-12T03:38:27;99910.69;;;12.96;100.00
37778;BME280;23615;51.506;7.678;2023-05-12T03:41:04;99913.28;;;12.91;100.00
37778;BME280;23615;51.506;7.678;2023-05-12T03:43:30;99923.59;;;12.99;100.00
37778;BME280;23615;51.506;7.678;2023-05-12T03:45:56;99926.16;;;12.94;100.00
37778;BME280;23615;51.506;7.678;2023-05-12T03:48:21;99921.38;;;12.96;100.00
37778;BME280;23615;51.506;7.678;2023-05-12T03:50:46;99918.94;;;12.95;100.00
37778;BME280;23615;51.506;7.678;2023-05-12T03:53:12;99915.47;;;12.94;100.00
37778;BME280;23615;51.506;7.678;2023-05-12T03:55:37;99919.75;;;12.95;100.00
37778;BME280;23615;51.506;7.678;2023-05-12T03:58:02;99922.94;;;12.92;100.00
37778;BME280;23615;51.506;7.678;2023-05-12T04:00:28;99919.19;;;12.93;100.00
37778;BME280;23615;51.506;7.678;2023-05-12T04:02:53;99918.41;;;12.93;100.00
37778;BME280;23615;51.506;7.678;2023-05-12T04:05:18;99916.50;;;12.93;100.00
37778;BME280;23615;51.506;7.678;2023-05-12T04:07:44;99921.16;;;12.98;100.00
37778;BME280;23615;51.506;7.678;2023-05-12T04:10:09;99927.78;;;12.95;100.00
37778;BME280;23615;51.506;7.678;2023-05-12T04:12:34;99932.09;;;12.96;100.00
37778;BME280;23615;51.506;7.678;2023-05-12T04:15:00;99930.00;;;12.98;100.00
37778;BME280;23615;51.506;7.678;2023-05-12T04:17:25;99935.53;;;12.92;100.00
37778;BME280;23615;51.506;7.678;2023-05-12T04:19:50;99929.25;;;12.86;100.00
37778;BME280;23615;51.506;7.678;2023-05-12T04:22:16;99943.22;;;12.88;100.00
37778;BME280;23615;51.506;7.678;2023-05-12T04:24:42;99946.22;;;12.92;100.00
37778;BME280;23615;51.506;7.678;2023-05-12T04:27:07;99945.97;;;12.93;100.00
37778;BME280;23615;51.506;7.678;2023-05-12T04:29:32;99943.06;;;12.95;100.00
37778;BME280;23615;51.506;7.678;2023-05-12T04:31:58;99953.28;;;12.98;100.00
37778;BME280;23615;51.506;7.678;2023-05-12T04:34:24;99953.53;;;12.96;100.00
37778;BME280;23615;51.506;7.678;2023-05-12T04:36:49;99946.31;;;12.97;100.00
37778;BME280;23615;51.506;7.678;2023-05-12T04:39:15;99952.13;;;12.94;100.00
37778;BME280;23615;51.506;7.678;2023-05-12T04:41:40;99957.84;;;12.97;100.00
37778;BME280;23615;51.506;7.678;2023-05-12T04:44:06;99958.19;;;13.01;100.00
37778;BME280;23615;51.506;7.678;2023-05-12T04:46:31;99962.97;;;12.99;100.00
37778;BME280;23615;51.506;7.678;2023-05-12T04:48:56;99967.25;;;13.00;100.00
37778;BME280;23615;51.506;7.678;2023-05-12T04:51:22;99965.94;;;13.02;100.00
37778;BME280;23615;51.506;7.678;2023-05-12T04:53:47;99977.25;;;13.04;100.00
37778;BME280;23615;51.506;7.678;2023-05-12T04:56:12;99980.50;;;13.06;100.00
37778;BME280;23615;51.506;7.678;2023-05-12T04:58:39;99984.22;;;13.05;100.00
37778;BME280;23615;51.506;7.678;2023-05-12T05:01:05;99990.41;;;13.06;100.00
37778;BME280;23615;51.506;7.678;2023-05-12T05:03:30;99993.66;;;13.08;100.00
37778;BME280;23615;51.506;7.678;2023-05-12T05:05:55;99996.09;;;13.09;100.00
37778;BME280;23615;51.506;7.678;2023-05-12T05:08:21;100002.50;;;13.08;100.00
37778;BME280;23615;51.506;7.678;2023-05-12T05:10:46;100001.19;;;13.11;100.00
37778;BME280;23615;51.506;7.678;2023-05-12T05:13:11;100013.31;;;13.14;100.00
37778;BME280;23615;51.506;7.678;2023-05-12T05:15:36;100013.09;;;13.15;100.00
37778;BME280;23615;51.506;7.678;2023-05-12T05:18:02;100016.34;;;13.17;100.00
37778;BME280;23615;51.506;7.678;2023-05-12T05:20:27;100028.94;;;13.17;100.00
37778;BME280;23615;51.506;7.678;2023-05-12T05:22:52;100023.34;;;13.18;100.00
37778;BME280;23615;51.506;7.678;2023-05-12T05:25:18;100028.19;;;13.21;100.00
37778;BME280;23615;51.506;7.678;2023-05-12T05:27:43;100031.28;;;13.30;100.00
37778;BME280;23615;51.506;7.678;2023-05-12T05:30:08;100034.66;;;13.37;100.00
37778;BME280;23615;51.506;7.678;2023-05-12T05:32:37;100034.91;;;13.35;100.00
37778;BME280;23615;51.506;7.678;2023-05-12T05:35:04;100033.75;;;13.31;100.00
37778;BME280;23615;51.506;7.678;2023-05-12T05:37:30;100035.94;;;13.34;100.00
37778;BME280;23615;51.506;7.678;2023-05-12T05:39:55;100039.91;;;13.32;100.00
37778;BME280;23615;51.506;7.678;2023-05-12T05:42:21;100041.66;;;13.38;100.00
37778;BME280;23615;51.506;7.678;2023-05-12T05:44:46;100034.16;;;13.40;100.00
37778;BME280;23615;51.506;7.678;2023-05-12T05:47:11;100045.94;;;13.39;100.00
37778;BME280;23615;51.506;7.678;2023-05-12T05:49:36;100044.06;;;13.39;100.00
37778;BME280;23615;51.506;7.678;2023-05-12T05:52:02;100049.44;;;13.39;100.00
37778;BME280;23615;51.506;7.678;2023-05-12T05:54:27;100051.56;;;13.37;100.00
37778;BME280;23615;51.506;7.678;2023-05-12T05:56:52;100059.91;;;13.41;100.00
37778;BME280;23615;51.506;7.678;2023-05-12T05:59:18;100061.06;;;13.45;100.00
37778;BME280;23615;51.506;7.678;2023-05-12T06:01:43;100066.50;;;13.50;100.00
37778;BME280;23615;51.506;7.678;2023-05-12T06:04:09;100065.56;;;13.56;100.00
37778;BME280;23615;51.506;7.678;2023-05-12T06:06:35;100070.19;;;13.61;100.00
37778;BME280;23615;51.506;7.678;2023-05-12T06:09:00;100070.53;;;13.64;100.00
37778;BME280;23615;51.506;7.678;2023-05-12T06:11:25;100069.78;;;13.69;100.00
37778;BME280;23615;51.506;7.678;2023-05-12T06:13:50;100075.47;;;13.72;100.00
37778;BME280;23615;51.506;7.678;2023-05-12T06:16:16;100081.41;;;13.74;100.00
37778;BME280;23615;51.506;7.678;2023-05-12T06:18:42;100079.84;;;13.78;100.00
37778;BME280;23615;51.506;7.678;2023-05-12T06:21:07;100080.34;;;13.75;100.00
37778;BME280;23615;51.506;7.678;2023-05-12T06:23:32;100085.81;;;13.80;100.00
37778;BME280;23615;51.506;7.678;2023-05-12T06:25:58;100080.69;;;13.79;100.00
37778;BME280;23615;51.506;7.678;2023-05-12T06:28:23;100085.81;;;13.80;100.00
37778;BME280;23615;51.506;7.678;2023-05-12T06:30:48;100089.78;;;13.78;100.00
37778;BME280;23615;51.506;7.678;2023-05-12T06:33:13;100091.75;;;13.82;100.00
37778;BME280;23615;51.506;7.678;2023-05-12T06:35:39;100097.09;;;13.82;100.00
37778;BME280;23615;51.506;7.678;2023-05-12T06:38:04;100091.25;;;13.85;100.00
37778;BME280;23615;51.506;7.678;2023-05-12T06:40:30;100098.81;;;13.89;100.00
37778;BME280;23615;51.506;7.678;2023-05-12T06:42:56;100103.84;;;13.85;100.00
37778;BME280;23615;51.506;7.678;2023-05-12T06:45:21;100100.34;;;13.84;100.00
37778;BME280;23615;51.506;7.678;2023-05-12T06:47:48;100103.03;;;13.84;100.00
37778;BME280;23615;51.506;7.678;2023-05-12T06:50:13;100104.09;;;13.83;100.00
37778;BME280;23615;51.506;7.678;2023-05-12T06:52:41;100107.72;;;13.77;100.00
37778;BME280;23615;51.506;7.678;2023-05-12T06:55:06;100108.66;;;13.83;100.00
37778;BME280;23615;51.506;7.678;2023-05-12T06:57:32;100114.91;;;13.89;100.00
37778;BME280;23615;51.506;7.678;2023-05-12T06:59:57;100110.34;;;13.89;100.00
37778;BME280;23615;51.506;7.678;2023-05-12T07:02:23;100114.50;;;13.97;100.00
37778;BME280;23615;51.506;7.678;2023-05-12T07:04:48;100116.13;;;13.98;100.00
37778;BME280;23615;51.506;7.678;2023-05-12T07:07:13;100122.53;;;13.97;100.00
37778;BME280;23615;51.506;7.678;2023-05-12T07:09:38;100108.66;;;14.00;100.00
37778;BME280;23615;51.506;7.678;2023-05-12T07:12:05;100115.38;;;14.02;100.00
37778;BME280;23615;51.506;7.678;2023-05-12T07:14:31;100112.69;;;14.02;100.00
37778;BME280;23615;51.506;7.678;2023-05-12T07:16:56;100121.19;;;14.11;100.00
37778;BME280;23615;51.506;7.678;2023-05-12T07:19:21;100117.69;;;14.10;100.00
37778;BME280;23615;51.506;7.678;2023-05-12T07:21:47;100116.47;;;14.18;100.00
37778;BME280;23615;51.506;7.678;2023-05-12T07:24:12;100118.09;;;14.19;100.00
37778;BME280;23615;51.506;7.678;2023-05-12T07:26:38;100125.38;;;14.23;100.00
37778;BME280;23615;51.506;7.678;2023-05-12T07:29:03;100129.13;;;14.22;100.00
37778;BME280;23615;51.506;7.678;2023-05-12T07:31:29;100127.59;;;14.27;100.00
37778;BME280;23615;51.506;7.678;2023-05-12T07:33:55;100128.72;;;14.31;100.00
37778;BME280;23615;51.506;7.678;2023-05-12T07:36:20;100131.00;;;14.39;100.00
37778;BME280;23615;51.506;7.678;2023-05-12T07:38:46;100129.81;;;14.46;100.00
37778;BME280;23615;51.506;7.678;2023-05-12T07:41:11;100132.31;;;14.53;100.00
37778;BME280;23615;51.506;7.678;2023-05-12T07:43:36;100132.06;;;14.54;100.00
37778;BME280;23615;51.506;7.678;2023-05-12T07:46:02;100134.63;;;14.66;100.00
37778;BME280;23615;51.506;7.678;2023-05-12T07:48:27;100138.69;;;14.69;100.00
37778;BME280;23615;51.506;7.678;2023-05-12T07:50:53;100129.25;;;14.83;100.00
37778;BME280;23615;51.506;7.678;2023-05-12T07:53:18;100135.53;;;14.93;100.00
37778;BME280;23615;51.506;7.678;2023-05-12T07:55:44;100138.19;;;15.10;100.00
37778;BME280;23615;51.506;7.678;2023-05-12T07:58:09;100140.34;;;15.13;99.74
37778;BME280;23615;51.506;7.678;2023-05-12T08:00:35;100146.19;;;15.27;99.77
37778;BME280;23615;51.506;7.678;2023-05-12T08:03:01;100154.81;;;15.29;99.32
37778;BME280;23615;51.506;7.678;2023-05-12T08:05:26;100142.47;;;15.33;98.80
37778;BME280;23615;51.506;7.678;2023-05-12T08:07:51;100160.28;;;15.39;98.47
37778;BME280;23615;51.506;7.678;2023-05-12T08:10:17;100154.66;;;15.41;97.83
37778;BME280;23615;51.506;7.678;2023-05-12T08:12:43;100159.28;;;15.45;97.75
37778;BME280;23615;51.506;7.678;2023-05-12T08:15:09;100155.59;;;15.51;98.27
37778;BME280;23615;51.506;7.678;2023-05-12T08:17:34;100163.47;;;15.58;98.33
37778;BME280;23615;51.506;7.678;2023-05-12T08:20:00;100154.16;;;15.65;97.51
37778;BME280;23615;51.506;7.678;2023-05-12T08:22:28;100157.28;;;15.57;96.95
37778;BME280;23615;51.506;7.678;2023-05-12T08:24:54;100150.38;;;15.66;97.51
37778;BME280;23615;51.506;7.678;2023-05-12T08:27:19;100152.09;;;15.73;97.30
37778;BME280;23615;51.506;7.678;2023-05-12T08:29:45;100161.56;;;15.80;97.51
37778;BME280;23615;51.506;7.678;2023-05-12T08:32:10;100161.31;;;15.82;97.37
37778;BME280;23615;51.506;7.678;2023-05-12T08:34:36;100157.19;;;16.01;96.95
37778;BME280;23615;51.506;7.678;2023-05-12T08:37:01;100166.84;;;15.97;96.45
37778;BME280;23615;51.506;7.678;2023-05-12T08:39:27;100172.53;;;16.00;96.58
37778;BME280;23615;51.506;7.678;2023-05-12T08:44:24;100167.44;;;16.04;96.20
37778;BME280;23615;51.506;7.678;2023-05-12T08:46:50;100174.22;;;16.12;96.00
37778;BME280;23615;51.506;7.678;2023-05-12T08:49:16;100177.09;;;16.00;95.05
37778;BME280;23615;51.506;7.678;2023-05-12T08:51:45;100176.91;;;16.12;94.71
37778;BME280;23615;51.506;7.678;2023-05-12T08:54:12;100171.53;;;16.12;94.48
37778;BME280;23615;51.506;7.678;2023-05-12T08:57:16;100169.97;;;16.16;94.45
37778;BME280;23615;51.506;7.678;2023-05-12T09:00:17;100175.44;;;16.26;94.85
37778;BME280;23615;51.506;7.678;2023-05-12T09:02:58;100179.78;;;16.32;94.43
37778;BME280;23615;51.506;7.678;2023-05-12T09:05:25;100178.50;;;16.39;94.17
37778;BME280;23615;51.506;7.678;2023-05-12T09:07:53;100179.88;;;16.42;93.54
37778;BME280;23615;51.506;7.678;2023-05-12T09:10:20;100185.50;;;16.40;93.28
37778;BME280;23615;51.506;7.678;2023-05-12T09:12:46;100182.00;;;16.40;93.30
37778;BME280;23615;51.506;7.678;2023-05-12T09:15:16;100184.44;;;16.41;93.28
37778;BME280;23615;51.506;7.678;2023-05-12T09:17:42;100178.56;;;16.50;93.17
37778;BME280;23615;51.506;7.678;2023-05-12T09:20:08;100176.50;;;16.57;93.06
37778;BME280;23615;51.506;7.678;2023-05-12T09:22:34;100181.13;;;16.66;93.11
37778;BME280;23615;51.506;7.678;2023-05-12T09:25:00;100181.69;;;16.68;92.37
37778;BME280;23615;51.506;7.678;2023-05-12T09:27:27;100186.56;;;16.71;91.19
37778;BME280;23615;51.506;7.678;2023-05-12T09:29:53;100179.88;;;16.79;91.04
37778;BME280;23615;51.506;7.678;2023-05-12T09:32:29;100170.44;;;16.76;90.79
37778;BME280;23615;51.506;7.678;2023-05-12T09:34:55;100171.59;;;16.91;91.12
37778;BME280;23615;51.506;7.678;2023-05-12T09:37:29;100179.75;;;17.01;90.80
37778;BME280;23615;51.506;7.678;2023-05-12T09:40:02;100178.06;;;16.95;90.93
37778;BME280;23615;51.506;7.678;2023-05-12T09:42:30;100183.56;;;17.10;90.97
37778;BME280;23615;51.506;7.678;2023-05-12T09:45:06;100177.66;;;17.18;90.20
37778;BME280;23615;51.506;7.678;2023-05-12T09:47:37;100190.13;;;17.29;89.59
37778;BME280;23615;51.506;7.678;2023-05-12T09:50:04;100184.22;;;17.37;90.37
37778;BME280;23615;51.506;7.678;2023-05-12T09:52:35;100173.66;;;17.31;89.76
37778;BME280;23615;51.506;7.678;2023-05-12T09:55:18;100178.31;;;17.45;89.90
37778;BME280;23615;51.506;7.678;2023-05-12T09:57:44;100190.13;;;17.34;89.60
37778;BME280;23615;51.506;7.678;2023-05-12T10:00:12;100182.63;;;17.51;88.79
37778;BME280;23615;51.506;7.678;2023-05-12T10:02:39;100184.53;;;17.51;87.40
37778;BME280;23615;51.506;7.678;2023-05-12T10:05:19;100185.34;;;17.51;88.39
37778;BME280;23615;51.506;7.678;2023-05-12T10:07:47;100188.94;;;17.72;88.73
37778;BME280;23615;51.506;7.678;2023-05-12T10:10:17;100185.22;;;17.93;88.27
37778;BME280;23615;51.506;7.678;2023-05-12T10:12:44;100184.16;;;18.10;87.91
37778;BME280;23615;51.506;7.678;2023-05-12T10:15:16;100190.09;;;18.17;86.61
37778;BME280;23615;51.506;7.678;2023-05-12T10:17:43;100173.88;;;18.27;86.96
37778;BME280;23615;51.506;7.678;2023-05-12T10:20:09;100178.72;;;18.50;86.50
37778;BME280;23615;51.506;7.678;2023-05-12T10:22:37;100173.88;;;18.57;85.56
37778;BME280;23615;51.506;7.678;2023-05-12T10:25:05;100181.16;;;18.67;85.56
37778;BME280;23615;51.506;7.678;2023-05-12T10:27:32;100175.78;;;18.47;84.45
37778;BME280;23615;51.506;7.678;2023-05-12T10:29:58;100169.31;;;18.27;85.51
37778;BME280;23615;51.506;7.678;2023-05-12T10:32:25;100169.53;;;18.21;84.65
37778;BME280;23615;51.506;7.678;2023-05-12T10:34:51;100171.44;;;18.05;85.75
37778;BME280;23615;51.506;7.678;2023-05-12T10:37:16;100167.66;;;18.16;85.88
37778;BME280;23615;51.506;7.678;2023-05-12T10:39:49;100176.31;;;18.39;86.03
37778;BME280;23615;51.506;7.678;2023-05-12T10:42:16;100166.56;;;18.73;85.37
37778;BME280;23615;51.506;7.678;2023-05-12T10:44:51;100165.72;;;18.88;83.03
37778;BME280;23615;51.506;7.678;2023-05-12T10:47:17;100161.06;;;19.09;82.89
37778;BME280;23615;51.506;7.678;2023-05-12T10:49:43;100166.94;;;19.26;81.04
37778;BME280;23615;51.506;7.678;2023-05-12T10:52:12;100161.81;;;19.29;81.39
37778;BME280;23615;51.506;7.678;2023-05-12T10:54:42;100162.13;;;19.18;80.14
37778;BME280;23615;51.506;7.678;2023-05-12T10:57:34;100163.97;;;19.22;81.10
37778;BME280;23615;51.506;7.678;2023-05-12T11:00:11;100158.06;;;19.15;80.41
37778;BME280;23615;51.506;7.678;2023-05-12T11:02:48;100154.22;;;19.21;80.95
37778;BME280;23615;51.506;7.678;2023-05-12T11:05:14;100158.31;;;19.19;80.85
37778;BME280;23615;51.506;7.678;2023-05-12T11:07:48;100158.59;;;19.17;80.78
37778;BME280;23615;51.506;7.678;2023-05-12T11:10:14;100158.84;;;19.26;81.05
37778;BME280;23615;51.506;7.678;2023-05-12T11:12:41;100155.53;;;19.34;81.65
37778;BME280;23615;51.506;7.678;2023-05-12T11:15:07;100159.34;;;19.33;82.61
37778;BME280;23615;51.506;7.678;2023-05-12T11:17:32;100158.19;;;19.44;82.25
37778;BME280;23615;51.506;7.678;2023-05-12T11:19:58;100157.66;;;19.52;80.43
37778;BME280;23615;51.506;7.678;2023-05-12T11:22:25;100165.22;;;19.55;80.03
37778;BME280;23615;51.506;7.678;2023-05-12T11:24:51;100155.34;;;19.74;80.22
37778;BME280;23615;51.506;7.678;2023-05-12T11:27:18;100158.34;;;19.73;78.32
37778;BME280;23615;51.506;7.678;2023-05-12T11:29:53;100160.19;;;19.77;77.75
37778;BME280;23615;51.506;7.678;2023-05-12T11:32:19;100164.47;;;19.89;78.41
37778;BME280;23615;51.506;7.678;2023-05-12T11:34:44;100162.50;;;19.94;77.20
37778;BME280;23615;51.506;7.678;2023-05-12T11:37:11;100170.94;;;19.93;76.66
37778;BME280;23615;51.506;7.678;2023-05-12T11:39:36;100159.38;;;19.82;76.11
37778;BME280;23615;51.506;7.678;2023-05-12T11:42:05;100166.16;;;19.79;76.11
37778;BME280;23615;51.506;7.678;2023-05-12T11:44:35;100164.78;;;19.82;76.99
37778;BME280;23615;51.506;7.678;2023-05-12T11:47:18;100163.97;;;19.82;77.68
37778;BME280;23615;51.506;7.678;2023-05-12T11:49:52;100161.41;;;19.95;76.43
37778;BME280;23615;51.506;7.678;2023-05-12T11:52:20;100149.47;;;20.01;76.66
37778;BME280;23615;51.506;7.678;2023-05-12T11:54:56;100166.06;;;19.90;77.09
37778;BME280;23615;51.506;7.678;2023-05-12T11:57:32;100166.84;;;19.95;77.37
37778;BME280;23615;51.506;7.678;2023-05-12T12:00:05;100163.16;;;19.81;75.70
37778;BME280;23615;51.506;7.678;2023-05-12T12:02:32;100164.13;;;19.95;76.48
37778;BME280;23615;51.506;7.678;2023-05-12T12:04:57;100165.72;;;20.01;76.52
37778;BME280;23615;51.506;7.678;2023-05-12T12:07:29;100169.19;;;20.12;76.50
37778;BME280;23615;51.506;7.678;2023-05-12T12:09:56;100166.25;;;20.03;76.57
37778;BME280;23615;51.506;7.678;2023-05-12T12:12:22;100173.28;;;20.04;75.13
37778;BME280;23615;51.506;7.678;2023-05-12T12:14:47;100165.59;;;20.16;74.18
37778;BME280;23615;51.506;7.678;2023-05-12T12:17:12;100172.78;;;20.36;74.90
37778;BME280;23615;51.506;7.678;2023-05-12T12:19:38;100175.34;;;20.51;74.99
37778;BME280;23615;51.506;7.678;2023-05-12T12:22:03;100168.75;;;20.63;75.42
37778;BME280;23615;51.506;7.678;2023-05-12T12:24:29;100168.44;;;20.93;77.08
37778;BME280;23615;51.506;7.678;2023-05-12T12:26:55;100165.25;;;21.10;74.41
37778;BME280;23615;51.506;7.678;2023-05-12T12:29:20;100161.66;;;21.14;74.16
37778;BME280;23615;51.506;7.678;2023-05-12T12:31:47;100171.81;;;21.04;73.96
37778;BME280;23615;51.506;7.678;2023-05-12T12:34:13;100173.34;;;20.91;74.20
37778;BME280;23615;51.506;7.678;2023-05-12T12:36:38;100163.16;;;20.78;74.35
37778;BME280;23615;51.506;7.678;2023-05-12T12:39:03;100168.66;;;20.73;75.97
37778;BME280;23615;51.506;7.678;2023-05-12T12:41:29;100169.38;;;20.54;74.96
37778;BME280;23615;51.506;7.678;2023-05-12T12:43:54;100167.59;;;20.40;75.46
37778;BME280;23615;51.506;7.678;2023-05-12T12:46:19;100162.25;;;20.30;75.66
37778;BME280;23615;51.506;7.678;2023-05-12T12:48:45;100166.63;;;20.26;76.55